createdAt,value
2017-08-01T00:00:07.133Z,24.6
2017-08-01T00:01:12.318Z,24.6
2017-08-01T00:02:16.975Z,24.6
2017-08-01T00:03:24.311Z,24.6
2017-08-01T00:04:30.183Z,24.6
2017-08-01T00:05:35.423Z,24.6
2017-08-01T00:06:41.433Z,24.6
2017-08-01T00:07:44.926Z,24.6
2017-08-01T00:08:50.367Z,24.6
2017-08-01T00:09:55.109Z,24.6
2017-08-01T00:11:00.589Z,24.6
2017-08-01T00:12:08.441Z,24.6
2017-08-01T00:13:12.793Z,24.6
2017-08-01T00:14:18.091Z,24.6
2017-08-01T00:15:22.788Z,24.6
2017-08-01T00:16:29.037Z,24.6
2017-08-01T00:17:34.094Z,24.6
2017-08-01T00:18:40.754Z,24.6
2017-08-01T00:19:46.106Z,24.6
2017-08-01T00:20:50.222Z,24.6
2017-08-01T00:21:55.639Z,24.6
2017-08-01T00:23:00.681Z,24.5
2017-08-01T00:24:06.457Z,24.6
2017-08-01T00:25:10.771Z,24.6
2017-08-01T00:26:16.661Z,24.6
2017-08-01T00:27:22.824Z,24.6
2017-08-01T00:28:30.696Z,24.6
2017-08-01T00:29:35.411Z,24.6
2017-08-01T00:30:42.321Z,24.6
2017-08-01T00:31:46.348Z,24.5
2017-08-01T00:32:52.475Z,24.5
2017-08-01T00:33:57.479Z,24.5
2017-08-01T00:35:03.254Z,24.5
2017-08-01T00:36:10.239Z,24.5
2017-08-01T00:37:15.367Z,24.5
2017-08-01T00:38:20.106Z,24.5
2017-08-01T00:39:23.402Z,24.5
2017-08-01T00:40:29.547Z,24.5
2017-08-01T00:41:34.578Z,24.5
2017-08-01T00:42:40.585Z,24.5
2017-08-01T00:43:45.669Z,24.5
2017-08-01T00:44:50.697Z,24.5
2017-08-01T00:45:56.526Z,24.5
2017-08-01T00:47:00.263Z,24.5
2017-08-01T00:48:04.258Z,24.5
2017-08-01T00:49:08.999Z,24.5
2017-08-01T00:50:12.518Z,24.5
2017-08-01T00:51:17.597Z,24.5
2017-08-01T00:52:23.190Z,24.4
2017-08-01T00:53:28.108Z,24.4
2017-08-01T00:54:34.006Z,24.4
2017-08-01T00:55:38.679Z,24.4
2017-08-01T00:56:44.646Z,24.4
2017-08-01T00:57:50.486Z,24.5
2017-08-01T00:58:54.302Z,24.4
2017-08-01T01:00:00.661Z,24.4
2017-08-01T01:01:06.424Z,24.4
2017-08-01T01:02:12.321Z,24.4
2017-08-01T01:03:19.003Z,24.4
2017-08-01T01:04:24.429Z,24.4
2017-08-01T01:05:27.461Z,24.4
2017-08-01T01:06:35.440Z,24.4
2017-08-01T01:07:42.565Z,24.4
2017-08-01T01:08:49.573Z,24.4
2017-08-01T01:09:56.534Z,24.4
2017-08-01T01:11:02.496Z,24.5
2017-08-01T01:12:06.865Z,24.5
2017-08-01T01:13:11.533Z,24.5
2017-08-01T01:14:15.320Z,24.5
2017-08-01T01:15:21.731Z,24.4
2017-08-01T01:16:28.223Z,24.4
2017-08-01T01:17:31.469Z,24.4
2017-08-01T01:18:36.548Z,24.3
2017-08-01T01:19:43.208Z,24.3
2017-08-01T01:20:48.160Z,24.3
2017-08-01T01:21:53.054Z,24.3
2017-08-01T01:22:58.648Z,24.3
2017-08-01T01:24:06.079Z,24.3
2017-08-01T01:25:09.874Z,24.3
2017-08-01T01:26:18.056Z,24.3
2017-08-01T01:27:20.780Z,24.3
2017-08-01T01:28:24.562Z,24.2
2017-08-01T01:29:30.312Z,24.2
2017-08-01T01:30:35.194Z,24.2
2017-08-01T01:31:41.574Z,24.2
2017-08-01T01:32:47.145Z,24.2
2017-08-01T01:33:51.875Z,24.2
2017-08-01T01:34:56.902Z,24.2
2017-08-01T01:36:03.181Z,24.2
2017-08-01T01:37:09.630Z,24.2
2017-08-01T01:38:13.696Z,24.2
2017-08-01T01:39:21.223Z,24.2
2017-08-01T01:40:27.420Z,24.2
2017-08-01T01:41:30.579Z,24.2
2017-08-01T01:42:35.110Z,24.2
2017-08-01T01:43:37.264Z,24.2
2017-08-01T01:44:41.868Z,24.2
2017-08-01T01:45:46.595Z,24.2
2017-08-01T01:46:50.128Z,24.2
2017-08-01T01:47:58.158Z,24.2
2017-08-01T01:49:04.389Z,24.2
2017-08-01T01:50:12.272Z,24.2
2017-08-01T01:51:16.093Z,24.1
2017-08-01T01:52:19.969Z,24.1
2017-08-01T01:53:27.766Z,24.1
2017-08-01T01:54:30.852Z,24.2
2017-08-01T01:55:35.675Z,24.2
2017-08-01T01:56:39.544Z,24.2
2017-08-01T01:57:44.428Z,24.2
2017-08-01T01:58:48.048Z,24.2
2017-08-01T01:59:53.262Z,24.2
2017-08-01T02:00:58.285Z,24.2
2017-08-01T02:02:01.536Z,24.1
2017-08-01T02:03:07.372Z,24.2
2017-08-01T02:04:11.318Z,24.2
2017-08-01T02:05:17.923Z,24.2
2017-08-01T02:06:23.123Z,24.2
2017-08-01T02:07:26.901Z,24.2
2017-08-01T02:08:34.649Z,24.2
2017-08-01T02:09:40.130Z,24.2
2017-08-01T02:10:44.675Z,24.2
2017-08-01T02:11:48.499Z,24.2
2017-08-01T02:12:52.828Z,24.2
2017-08-01T02:13:57.356Z,24.2
2017-08-01T02:15:01.167Z,24.2
2017-08-01T02:16:06.138Z,24.2
2017-08-01T02:17:09.502Z,24.2
2017-08-01T02:18:13.381Z,24.2
2017-08-01T02:19:18.017Z,24.2
2017-08-01T02:20:23.656Z,24.2
2017-08-01T02:21:27.789Z,24.2
2017-08-01T02:22:32.933Z,24.2
2017-08-01T02:23:39.497Z,24.2
2017-08-01T02:24:43.406Z,24.2
2017-08-01T02:25:49.770Z,24.2
2017-08-01T02:26:54.659Z,24.2
2017-08-01T02:28:01.366Z,24.2
2017-08-01T02:29:09.683Z,24.2
2017-08-01T02:30:13.115Z,24.2
2017-08-01T02:31:20.908Z,24.2
2017-08-01T02:32:26.300Z,24.2
2017-08-01T02:33:33.337Z,24.2
2017-08-01T02:34:37.984Z,24.1
2017-08-01T02:35:42.671Z,24.2
2017-08-01T02:36:47.340Z,24.1
2017-08-01T02:37:52.312Z,24.1
2017-08-01T02:38:59.364Z,24.2
2017-08-01T02:40:04.998Z,24.1
2017-08-01T02:41:11.183Z,24.1
2017-08-01T02:42:19.002Z,24.1
2017-08-01T02:43:23.711Z,24.1
2017-08-01T02:44:27.412Z,24.1
2017-08-01T02:45:31.090Z,24.1
2017-08-01T02:46:37.069Z,24.1
2017-08-01T02:47:42.060Z,24.1
2017-08-01T02:48:46.397Z,24.1
2017-08-01T02:49:51.196Z,24.1
2017-08-01T02:50:55.354Z,24.1
2017-08-01T02:52:02.353Z,24.1
2017-08-01T02:53:08.047Z,24.1
2017-08-01T02:54:13.493Z,24.1
2017-08-01T02:55:18.315Z,24.1
2017-08-01T02:56:23.953Z,24.1
2017-08-01T02:57:27.819Z,24.1
2017-08-01T02:58:35.209Z,24.1
2017-08-01T02:59:41.081Z,24.1
2017-08-01T03:00:45.957Z,24.1
2017-08-01T03:01:49.956Z,24.1
2017-08-01T03:02:54.632Z,24.1
2017-08-01T03:04:02.844Z,24.1
2017-08-01T03:05:09.364Z,24.1
2017-08-01T03:06:15.326Z,24.1
2017-08-01T03:07:20.519Z,24.1
2017-08-01T03:08:26.011Z,24.1
2017-08-01T03:09:32.227Z,24.1
2017-08-01T03:10:36.727Z,24.1
2017-08-01T03:11:42.051Z,24.1
2017-08-01T03:12:47.149Z,24.1
2017-08-01T03:13:50.962Z,24.1
2017-08-01T03:14:55.829Z,24.1
2017-08-01T03:16:01.237Z,24.1
2017-08-01T03:17:06.740Z,24.1
2017-08-01T03:18:13.362Z,24.1
2017-08-01T03:19:18.639Z,24.1
2017-08-01T03:20:23.902Z,24.1
2017-08-01T03:21:30.252Z,24.1
2017-08-01T03:22:34.626Z,24.1
2017-08-01T03:23:38.130Z,24.1
2017-08-01T03:24:43.646Z,24.1
2017-08-01T03:25:47.960Z,24.0
2017-08-01T03:26:52.757Z,24.1
2017-08-01T03:27:57.917Z,24.1
2017-08-01T03:29:04.767Z,24.1
2017-08-01T03:30:10.101Z,24.1
2017-08-01T03:31:16.028Z,24.1
2017-08-01T03:32:20.268Z,24.0
2017-08-01T03:33:24.615Z,24.0
2017-08-01T03:34:29.063Z,24.1
2017-08-01T03:35:34.942Z,24.1
2017-08-01T03:36:41.296Z,24.1
2017-08-01T03:37:45.351Z,24.0
2017-08-01T03:38:51.435Z,24.0
2017-08-01T03:39:55.287Z,24.0
2017-08-01T03:41:00.281Z,24.0
2017-08-01T03:42:03.873Z,24.0
2017-08-01T03:43:08.946Z,24.0
2017-08-01T03:44:15.285Z,24.0
2017-08-01T03:45:22.794Z,24.0
2017-08-01T03:46:26.309Z,24.0
2017-08-01T03:47:31.958Z,24.0
2017-08-01T03:48:36.967Z,24.0
2017-08-01T03:49:41.303Z,24.0
2017-08-01T03:50:46.818Z,24.0
2017-08-01T03:51:52.845Z,24.0
2017-08-01T03:52:57.868Z,24.0
2017-08-01T03:54:03.166Z,24.0
2017-08-01T03:55:06.435Z,24.0
2017-08-01T03:56:11.223Z,24.0
2017-08-01T03:57:16.413Z,24.0
2017-08-01T03:58:20.641Z,24.0
2017-08-01T03:59:26.810Z,24.0
2017-08-01T04:00:30.825Z,24.0
2017-08-01T04:01:34.402Z,24.0
2017-08-01T04:02:39.887Z,24.0
2017-08-01T04:03:45.366Z,24.0
2017-08-01T04:04:53.149Z,24.1
2017-08-01T04:05:56.924Z,24.0
2017-08-01T04:07:03.464Z,24.0
2017-08-01T04:08:07.783Z,24.0
2017-08-01T04:09:12.583Z,24.0
2017-08-01T04:10:16.993Z,24.0
2017-08-01T04:11:22.124Z,24.0
2017-08-01T04:12:25.981Z,24.1
2017-08-01T04:13:32.761Z,24.0
2017-08-01T04:14:39.453Z,24.1
2017-08-01T04:15:44.127Z,24.0
2017-08-01T04:16:49.523Z,24.0
2017-08-01T04:17:53.921Z,24.0
2017-08-01T04:18:58.848Z,24.0
2017-08-01T04:20:03.705Z,24.0
2017-08-01T04:21:07.618Z,24.0
2017-08-01T04:22:12.849Z,24.1
2017-08-01T04:23:18.516Z,24.1
2017-08-01T04:24:25.360Z,24.0
2017-08-01T04:25:30.743Z,24.1
2017-08-01T04:26:36.942Z,24.0
2017-08-01T04:27:42.232Z,24.0
2017-08-01T04:28:46.439Z,24.1
2017-08-01T04:29:51.736Z,24.0
2017-08-01T04:30:58.467Z,24.0
2017-08-01T04:32:03.538Z,24.1
2017-08-01T04:33:07.260Z,24.1
2017-08-01T04:34:18.486Z,24.1
2017-08-01T04:35:24.287Z,24.1
2017-08-01T04:36:29.545Z,24.1
2017-08-01T04:37:35.440Z,24.1
2017-08-01T04:38:39.953Z,24.1
2017-08-01T04:39:45.906Z,24.1
2017-08-01T04:40:50.969Z,24.1
2017-08-01T04:41:56.385Z,24.1
2017-08-01T04:43:03.104Z,24.1
2017-08-01T04:44:07.198Z,24.0
2017-08-01T04:45:13.387Z,24.1
2017-08-01T04:46:17.967Z,24.1
2017-08-01T04:47:25.032Z,24.1
2017-08-01T04:48:30.016Z,24.1
2017-08-01T04:49:36.317Z,24.1
2017-08-01T04:50:41.270Z,24.1
2017-08-01T04:51:47.038Z,24.1
2017-08-01T04:52:52.311Z,24.1
2017-08-01T04:53:59.403Z,24.1
2017-08-01T04:55:02.903Z,24.1
2017-08-01T04:56:07.714Z,24.1
2017-08-01T04:57:13.553Z,24.1
2017-08-01T04:58:18.951Z,24.1
2017-08-01T04:59:26.410Z,24.1
2017-08-01T05:00:30.196Z,24.1
2017-08-01T05:01:34.797Z,24.1
2017-08-01T05:02:39.832Z,24.1
2017-08-01T05:03:45.081Z,24.1
2017-08-01T05:04:50.097Z,24.1
2017-08-01T05:05:54.824Z,24.1
2017-08-01T05:06:59.414Z,24.1
2017-08-01T05:08:06.558Z,24.2
2017-08-01T05:09:12.699Z,24.1
2017-08-01T05:10:17.884Z,24.1
2017-08-01T05:11:24.134Z,24.1
2017-08-01T05:12:30.431Z,24.2
2017-08-01T05:13:37.100Z,24.2
2017-08-01T05:14:41.581Z,24.1
2017-08-01T05:15:47.192Z,24.2
2017-08-01T05:16:52.440Z,24.1
2017-08-01T05:17:56.949Z,24.2
2017-08-01T05:19:00.228Z,24.3
2017-08-01T05:20:05.645Z,24.3
2017-08-01T05:21:09.689Z,24.3
2017-08-01T05:22:14.556Z,24.3
2017-08-01T05:23:17.679Z,24.3
2017-08-01T05:24:22.608Z,24.2
2017-08-01T05:25:27.674Z,24.2
2017-08-01T05:26:32.474Z,24.3
2017-08-01T05:27:35.914Z,24.3
2017-08-01T05:28:40.089Z,24.3
2017-08-01T05:29:45.522Z,24.3
2017-08-01T05:30:53.194Z,24.3
2017-08-01T05:31:58.465Z,24.3
2017-08-01T05:33:02.266Z,24.4
2017-08-01T05:34:06.607Z,24.4
2017-08-01T05:35:13.154Z,24.4
2017-08-01T05:36:19.581Z,24.4
2017-08-01T05:37:25.694Z,24.4
2017-08-01T05:38:30.370Z,24.4
2017-08-01T05:39:35.349Z,24.4
2017-08-01T05:40:39.251Z,24.4
2017-08-01T05:41:43.111Z,24.4
2017-08-01T05:42:49.046Z,24.5
2017-08-01T05:43:54.984Z,24.5
2017-08-01T05:44:58.280Z,24.5
2017-08-01T05:46:02.245Z,24.5
2017-08-01T05:47:08.082Z,24.5
2017-08-01T05:48:13.381Z,24.5
2017-08-01T05:49:16.992Z,24.5
2017-08-01T05:50:21.111Z,24.5
2017-08-01T05:51:28.855Z,24.5
2017-08-01T05:52:34.998Z,24.5
2017-08-01T05:53:42.009Z,24.5
2017-08-01T05:54:46.952Z,24.5
2017-08-01T05:55:51.508Z,24.5
2017-08-01T05:56:59.164Z,24.5
2017-08-01T05:58:01.957Z,24.5
2017-08-01T05:59:05.638Z,24.4
2017-08-01T06:00:11.743Z,24.5
2017-08-01T06:01:19.024Z,24.5
2017-08-01T06:02:23.777Z,24.5
2017-08-01T06:03:26.944Z,24.5
2017-08-01T06:04:30.814Z,24.4
2017-08-01T06:05:37.234Z,24.5
2017-08-01T06:06:42.676Z,24.4
2017-08-01T06:07:48.649Z,24.4
2017-08-01T06:08:54.517Z,24.5
2017-08-01T06:09:59.559Z,24.5
2017-08-01T06:11:04.483Z,24.5
2017-08-01T06:12:09.539Z,24.5
2017-08-01T06:13:16.676Z,24.6
2017-08-01T06:14:21.566Z,24.5
2017-08-01T06:15:26.965Z,24.5
2017-08-01T06:16:31.699Z,24.5
2017-08-01T06:17:37.389Z,24.5
2017-08-01T06:18:44.328Z,24.5
2017-08-01T06:19:48.543Z,24.5
2017-08-01T06:20:54.807Z,24.5
2017-08-01T06:21:58.330Z,24.6
2017-08-01T06:23:03.551Z,24.6
2017-08-01T06:24:07.325Z,24.6
2017-08-01T06:25:12.422Z,24.7
2017-08-01T06:26:16.625Z,24.7
2017-08-01T06:27:22.679Z,24.7
2017-08-01T06:28:33.567Z,24.8
2017-08-01T06:29:37.190Z,24.7
2017-08-01T06:30:41.496Z,24.7
2017-08-01T06:31:49.064Z,24.8
2017-08-01T06:32:52.652Z,24.8
2017-08-01T06:33:56.816Z,24.8
2017-08-01T06:35:03.291Z,24.8
2017-08-01T06:36:09.087Z,24.8
2017-08-01T06:37:13.580Z,24.8
2017-08-01T06:38:20.139Z,24.7
2017-08-01T06:39:24.567Z,24.7
2017-08-01T06:40:28.681Z,24.7
2017-08-01T06:41:31.861Z,24.6
2017-08-01T06:42:35.910Z,24.6
2017-08-01T06:43:42.785Z,24.6
2017-08-01T06:44:46.421Z,24.6
2017-08-01T06:45:52.714Z,24.6
2017-08-01T06:46:59.285Z,24.6
2017-08-01T06:48:03.366Z,24.7
2017-08-01T06:49:10.596Z,24.6
2017-08-01T06:50:16.594Z,24.7
2017-08-01T06:51:20.385Z,24.7
2017-08-01T06:52:27.709Z,24.7
2017-08-01T06:53:33.369Z,24.7
2017-08-01T06:54:38.115Z,24.8
2017-08-01T06:55:41.903Z,24.8
2017-08-01T06:56:48.107Z,24.8
2017-08-01T06:57:56.107Z,24.8
2017-08-01T06:59:00.310Z,24.8
2017-08-01T07:00:06.610Z,24.8
2017-08-01T07:01:12.120Z,24.8
2017-08-01T07:02:16.388Z,24.8
2017-08-01T07:03:23.274Z,24.7
2017-08-01T07:04:26.818Z,24.7
2017-08-01T07:05:32.202Z,24.7
2017-08-01T07:06:37.653Z,24.7
2017-08-01T07:07:43.474Z,24.8
2017-08-01T07:08:48.140Z,24.8
2017-08-01T07:09:53.659Z,24.8
2017-08-01T07:10:57.969Z,24.8
2017-08-01T07:12:03.460Z,24.9
2017-08-01T07:13:08.995Z,24.9
2017-08-01T07:14:15.428Z,24.9
2017-08-01T07:15:20.469Z,24.9
2017-08-01T07:16:25.440Z,25.0
2017-08-01T07:17:33.494Z,25.1
2017-08-01T07:18:38.838Z,25.1
2017-08-01T07:19:44.290Z,25.2
2017-08-01T07:20:48.299Z,25.2
2017-08-01T07:21:55.148Z,25.2
2017-08-01T07:23:01.648Z,25.2
2017-08-01T07:24:05.744Z,25.2
2017-08-01T07:25:11.153Z,25.2
2017-08-01T07:26:16.569Z,25.3
2017-08-01T07:27:22.319Z,25.2
2017-08-01T07:28:28.005Z,25.2
2017-08-01T07:29:34.839Z,25.2
2017-08-01T07:30:40.385Z,25.1
2017-08-01T07:31:47.863Z,25.1
2017-08-01T07:32:52.892Z,25.0
2017-08-01T07:33:57.386Z,25.0
2017-08-01T07:35:02.632Z,25.1
2017-08-01T07:36:09.404Z,25.1
2017-08-01T07:37:16.174Z,25.2
2017-08-01T07:38:21.769Z,25.2
2017-08-01T07:39:29.346Z,25.2
2017-08-01T07:40:33.395Z,25.3
2017-08-01T07:41:40.777Z,25.3
2017-08-01T07:42:48.273Z,25.4
2017-08-01T07:43:52.151Z,25.4
2017-08-01T07:44:57.862Z,25.5
2017-08-01T07:46:04.188Z,25.4
2017-08-01T07:47:06.822Z,25.4
2017-08-01T07:48:12.151Z,25.4
2017-08-01T07:49:17.090Z,25.4
2017-08-01T07:50:20.807Z,25.5
2017-08-01T07:51:27.715Z,25.4
2017-08-01T07:52:31.901Z,25.5
2017-08-01T07:53:37.431Z,25.5
2017-08-01T07:54:42.426Z,25.5
2017-08-01T07:55:46.842Z,25.5
2017-08-01T07:56:50.973Z,25.4
2017-08-01T07:57:56.003Z,25.4
2017-08-01T07:59:00.307Z,25.4
2017-08-01T08:00:06.653Z,25.3
2017-08-01T08:01:09.782Z,25.3
2017-08-01T08:02:13.755Z,25.3
2017-08-01T08:03:19.538Z,25.2
2017-08-01T08:04:25.246Z,25.2
2017-08-01T08:05:29.378Z,25.2
2017-08-01T08:06:36.036Z,25.2
2017-08-01T08:07:41.812Z,25.2
2017-08-01T08:08:46.647Z,25.2
2017-08-01T08:09:52.228Z,25.3
2017-08-01T08:10:59.364Z,25.3
2017-08-01T08:12:02.783Z,25.3
2017-08-01T08:13:09.014Z,25.3
2017-08-01T08:14:13.793Z,25.3
2017-08-01T08:15:18.963Z,25.3
2017-08-01T08:16:23.467Z,25.2
2017-08-01T08:17:29.680Z,25.3
2017-08-01T08:18:34.671Z,25.3
2017-08-01T08:19:43.878Z,25.3
2017-08-01T08:20:51.747Z,25.3
2017-08-01T08:21:55.461Z,25.3
2017-08-01T08:22:59.454Z,25.3
2017-08-01T08:24:04.086Z,25.3
2017-08-01T08:25:10.440Z,25.4
2017-08-01T08:26:18.402Z,25.4
2017-08-01T08:27:25.259Z,25.4
2017-08-01T08:28:30.683Z,25.4
2017-08-01T08:29:38.491Z,25.3
2017-08-01T08:30:43.527Z,25.3
2017-08-01T08:31:48.480Z,25.3
2017-08-01T08:32:53.815Z,25.2
2017-08-01T08:33:58.999Z,25.2
2017-08-01T08:35:04.776Z,25.2
2017-08-01T08:36:09.994Z,25.2
2017-08-01T08:37:15.266Z,25.2
2017-08-01T08:38:21.775Z,25.3
2017-08-01T08:39:25.048Z,25.3
2017-08-01T08:40:29.461Z,25.4
2017-08-01T08:41:34.700Z,25.4
2017-08-01T08:42:40.021Z,25.4
2017-08-01T08:43:44.175Z,25.4
2017-08-01T08:44:51.793Z,25.3
2017-08-01T08:45:54.805Z,25.3
2017-08-01T08:47:01.908Z,25.3
2017-08-01T08:48:09.176Z,25.3
2017-08-01T08:49:15.899Z,25.2
2017-08-01T08:50:22.798Z,25.2
2017-08-01T08:51:27.880Z,25.1
2017-08-01T08:52:34.004Z,25.1
2017-08-01T08:53:41.308Z,25.0
2017-08-01T08:54:46.261Z,25.0
2017-08-01T08:55:50.802Z,25.0
2017-08-01T08:56:58.742Z,25.0
2017-08-01T08:58:05.299Z,25.0
2017-08-01T08:59:09.810Z,25.1
2017-08-01T09:00:17.368Z,25.1
2017-08-01T09:01:23.969Z,25.2
2017-08-01T09:02:29.941Z,25.2
2017-08-01T09:03:37.427Z,25.2
2017-08-01T09:04:45.460Z,25.2
2017-08-01T09:05:53.320Z,25.2
2017-08-01T09:06:56.425Z,25.3
2017-08-01T09:08:03.225Z,25.3
2017-08-01T09:09:08.052Z,25.3
2017-08-01T09:10:13.227Z,25.4
2017-08-01T09:11:17.433Z,25.5
2017-08-01T09:12:24.335Z,25.5
2017-08-01T09:13:31.052Z,25.5
2017-08-01T09:14:36.626Z,25.5
2017-08-01T09:15:45.555Z,25.5
2017-08-01T09:16:53.341Z,25.5
2017-08-01T09:17:58.956Z,25.5
2017-08-01T09:19:04.517Z,25.5
2017-08-01T09:20:08.208Z,25.5
2017-08-01T09:21:13.063Z,25.6
2017-08-01T09:22:17.196Z,25.5
2017-08-01T09:23:23.531Z,25.6
2017-08-01T09:24:29.858Z,25.6
2017-08-01T09:25:34.277Z,25.5
2017-08-01T09:26:38.695Z,25.5
2017-08-01T09:27:44.875Z,25.6
2017-08-01T09:28:51.361Z,25.6
2017-08-01T09:29:57.492Z,25.6
2017-08-01T09:31:01.948Z,25.6
2017-08-01T09:32:06.686Z,25.7
2017-08-01T09:33:11.798Z,25.7
2017-08-01T09:34:14.863Z,25.8
2017-08-01T09:35:20.870Z,25.8
2017-08-01T09:36:25.754Z,25.8
2017-08-01T09:37:30.433Z,25.8
2017-08-01T09:38:35.770Z,25.8
2017-08-01T09:39:43.278Z,25.8
2017-08-01T09:40:48.379Z,25.9
2017-08-01T09:41:52.569Z,25.9
2017-08-01T09:42:56.044Z,25.9
2017-08-01T09:43:59.801Z,25.9
2017-08-01T09:45:03.577Z,25.9
2017-08-01T09:46:09.560Z,25.8
2017-08-01T09:47:14.721Z,25.9
2017-08-01T09:48:20.960Z,25.9
2017-08-01T09:49:24.853Z,25.9
2017-08-01T09:50:29.683Z,26.0
2017-08-01T09:51:35.621Z,26.0
2017-08-01T09:52:41.736Z,26.0
2017-08-01T09:53:46.901Z,26.1
2017-08-01T09:54:51.405Z,26.1
2017-08-01T09:55:55.911Z,26.1
2017-08-01T09:57:00.906Z,26.0
2017-08-01T09:58:05.147Z,25.9
2017-08-01T09:59:09.423Z,25.9
2017-08-01T10:00:14.981Z,25.8
2017-08-01T10:01:19.770Z,25.9
2017-08-01T10:02:28.940Z,25.9
2017-08-01T10:03:30.941Z,25.9
2017-08-01T10:04:41.152Z,26.0
2017-08-01T10:05:48.515Z,25.9
2017-08-01T10:06:59.430Z,25.9
2017-08-01T10:08:06.045Z,25.9
2017-08-01T10:09:13.435Z,25.9
2017-08-01T10:10:18.851Z,25.9
2017-08-01T10:11:26.930Z,25.9
2017-08-01T10:12:33.432Z,25.8
2017-08-01T10:13:40.864Z,25.9
2017-08-01T10:14:49.938Z,25.9
2017-08-01T10:15:57.960Z,25.9
2017-08-01T10:17:03.708Z,25.9
2017-08-01T10:18:11.444Z,25.9
2017-08-01T10:19:17.037Z,25.9
2017-08-01T10:20:24.447Z,26.0
2017-08-01T10:21:32.447Z,26.0
2017-08-01T10:22:40.950Z,26.1
2017-08-01T10:23:47.963Z,26.2
2017-08-01T10:24:55.719Z,26.1
2017-08-01T10:26:02.456Z,26.1
2017-08-01T10:27:08.466Z,26.2
2017-08-01T10:28:15.961Z,26.1
2017-08-01T10:29:20.222Z,26.1
2017-08-01T10:30:27.786Z,26.2
2017-08-01T10:31:38.473Z,26.2
2017-08-01T10:32:46.768Z,26.2
2017-08-01T10:33:54.826Z,26.2
2017-08-01T10:35:04.014Z,26.2
2017-08-01T10:36:12.980Z,26.1
2017-08-01T10:37:22.992Z,26.2
2017-08-01T10:38:32.238Z,26.1
2017-08-01T10:39:40.187Z,26.1
2017-08-01T10:40:48.827Z,26.1
2017-08-01T10:41:54.164Z,26.2
2017-08-01T10:43:03.484Z,26.1
2017-08-01T10:44:10.991Z,26.0
2017-08-01T10:45:18.491Z,26.1
2017-08-01T10:46:26.602Z,26.0
2017-08-01T10:47:33.191Z,25.9
2017-08-01T10:48:41.136Z,25.9
2017-08-01T10:49:46.861Z,25.9
2017-08-01T10:50:55.558Z,25.8
2017-08-01T10:52:04.143Z,25.8
2017-08-01T10:53:13.019Z,25.8
2017-08-01T10:54:20.504Z,25.7
2017-08-01T10:55:28.507Z,25.7
2017-08-01T10:56:33.704Z,25.7
2017-08-01T10:57:40.229Z,25.7
2017-08-01T10:58:47.557Z,25.7
2017-08-01T10:59:56.522Z,25.8
2017-08-01T11:01:04.518Z,25.8
2017-08-01T11:02:15.334Z,25.8
2017-08-01T11:03:24.523Z,25.9
2017-08-01T11:04:33.905Z,26.0
2017-08-01T11:05:41.398Z,25.9
2017-08-01T11:06:49.609Z,25.9
2017-08-01T11:07:56.755Z,26.0
2017-08-01T11:09:05.410Z,26.0
2017-08-01T11:10:13.204Z,26.0
2017-08-01T11:11:19.899Z,26.0
2017-08-01T11:12:30.039Z,26.1
2017-08-01T11:13:38.112Z,26.2
2017-08-01T11:14:45.060Z,26.2
2017-08-01T11:15:52.371Z,26.1
2017-08-01T11:16:58.296Z,26.1
2017-08-01T11:18:08.047Z,26.1
2017-08-01T11:19:12.623Z,26.1
2017-08-01T11:20:20.248Z,26.1
2017-08-01T11:21:26.680Z,26.0
2017-08-01T11:22:33.422Z,26.0
2017-08-01T11:23:41.978Z,26.0
2017-08-01T11:24:52.737Z,26.0
2017-08-01T11:26:00.274Z,26.0
2017-08-01T11:27:06.978Z,26.0
2017-08-01T11:28:15.074Z,26.0
2017-08-01T11:29:23.471Z,26.0
2017-08-01T11:30:29.353Z,26.0
2017-08-01T11:31:34.799Z,26.0
2017-08-01T11:33:58.785Z,26.0
2017-08-01T11:35:04.002Z,26.0
2017-08-01T11:36:14.196Z,26.0
2017-08-01T11:37:21.254Z,26.0
2017-08-01T11:38:29.515Z,26.0
2017-08-01T11:39:39.086Z,26.0
2017-08-01T11:40:47.774Z,26.0
2017-08-01T11:41:54.586Z,26.0
2017-08-01T11:43:00.045Z,26.1
2017-08-01T11:44:05.198Z,26.1
2017-08-01T11:45:11.589Z,26.1
2017-08-01T11:46:18.109Z,26.2
2017-08-01T11:47:26.096Z,26.2
2017-08-01T11:48:30.595Z,26.3
2017-08-01T11:49:38.104Z,26.5
2017-08-01T11:50:45.119Z,26.5
2017-08-01T11:51:52.255Z,26.4
2017-08-01T11:53:01.848Z,26.4
2017-08-01T11:54:10.608Z,26.4
2017-08-01T11:55:17.323Z,26.5
2017-08-01T11:56:25.264Z,26.5
2017-08-01T11:57:30.617Z,26.4
2017-08-01T11:58:38.612Z,26.3
2017-08-01T11:59:46.506Z,26.2
2017-08-01T12:00:56.616Z,26.2
2017-08-01T12:02:02.827Z,26.2
2017-08-01T12:03:08.894Z,26.1
2017-08-01T12:04:16.623Z,26.1
2017-08-01T12:05:22.624Z,26.2
2017-08-01T12:06:29.933Z,26.1
2017-08-01T12:07:36.841Z,26.1
2017-08-01T12:08:43.527Z,26.1
2017-08-01T12:09:50.720Z,26.1
2017-08-01T12:10:58.646Z,26.0
2017-08-01T12:12:06.680Z,25.9
2017-08-01T12:13:14.140Z,25.8
2017-08-01T12:14:22.139Z,25.8
2017-08-01T12:15:27.141Z,25.8
2017-08-01T12:16:33.787Z,25.8
2017-08-01T12:17:43.679Z,25.8
2017-08-01T12:18:51.738Z,25.8
2017-08-01T12:20:01.153Z,25.8
2017-08-01T12:21:11.162Z,25.8
2017-08-01T12:22:18.331Z,25.9
2017-08-01T12:23:27.661Z,25.9
2017-08-01T12:24:37.156Z,25.9
2017-08-01T12:25:44.664Z,25.9
2017-08-01T12:26:52.471Z,26.0
2017-08-01T12:28:01.851Z,26.1
2017-08-01T12:29:11.175Z,26.3
2017-08-01T12:30:18.075Z,26.4
2017-08-01T12:31:29.016Z,26.5
2017-08-01T12:32:37.168Z,26.6
2017-08-01T12:33:46.830Z,26.6
2017-08-01T12:34:55.676Z,26.7
2017-08-01T12:36:01.705Z,26.6
2017-08-01T12:37:11.448Z,26.5
2017-08-01T12:38:21.408Z,26.5
2017-08-01T12:39:31.369Z,26.6
2017-08-01T12:40:38.205Z,26.6
2017-08-01T12:41:44.546Z,26.7
2017-08-01T12:42:53.691Z,26.6
2017-08-01T12:44:03.705Z,26.6
2017-08-01T12:45:12.299Z,26.5
2017-08-01T12:46:20.805Z,26.5
2017-08-01T12:47:29.476Z,26.5
2017-08-01T12:48:37.324Z,26.6
2017-08-01T12:49:44.578Z,26.6
2017-08-01T12:50:54.201Z,26.5
2017-08-01T12:52:04.288Z,26.5
2017-08-01T12:53:12.246Z,26.5
2017-08-01T12:54:18.285Z,26.5
2017-08-01T12:55:29.207Z,26.6
2017-08-01T12:56:33.222Z,26.5
2017-08-01T12:57:38.686Z,26.5
2017-08-01T12:58:44.730Z,26.7
2017-08-01T12:59:55.220Z,26.8
2017-08-01T13:01:05.218Z,26.6
2017-08-01T13:02:11.451Z,26.4
2017-08-01T13:03:20.302Z,26.3
2017-08-01T13:04:29.723Z,26.2
2017-08-01T13:05:36.516Z,26.2
2017-08-01T13:06:45.361Z,26.1
2017-08-01T13:07:49.879Z,26.0
2017-08-01T13:08:59.739Z,26.0
2017-08-01T13:10:06.243Z,25.9
2017-08-01T13:11:14.490Z,25.9
2017-08-01T13:12:21.492Z,25.9
2017-08-01T13:13:26.856Z,25.9
2017-08-01T13:14:34.848Z,25.8
2017-08-01T13:15:43.735Z,25.9
2017-08-01T13:16:48.928Z,25.8
2017-08-01T13:17:56.395Z,25.9
2017-08-01T13:19:04.895Z,25.8
2017-08-01T13:20:11.436Z,25.8
2017-08-01T13:21:20.940Z,25.9
2017-08-01T13:22:28.417Z,25.8
2017-08-01T13:23:34.496Z,25.8
2017-08-01T13:24:43.442Z,25.8
2017-08-01T13:25:51.203Z,25.8
2017-08-01T13:26:59.765Z,25.8
2017-08-01T13:28:06.968Z,25.8
2017-08-01T13:29:12.051Z,25.8
2017-08-01T13:30:20.787Z,25.8
2017-08-01T13:31:27.343Z,25.8
2017-08-01T13:32:36.970Z,25.7
2017-08-01T13:34:55.736Z,25.7
2017-08-01T13:36:05.279Z,25.7
2017-08-01T13:37:12.636Z,25.7
2017-08-01T13:38:22.536Z,25.8
2017-08-01T13:39:33.505Z,25.7
2017-08-01T13:40:41.099Z,25.7
2017-08-01T13:41:48.228Z,25.7
2017-08-01T13:42:58.596Z,25.7
2017-08-01T13:44:07.311Z,25.7
2017-08-01T13:45:16.817Z,25.6
2017-08-01T13:46:23.321Z,25.6
2017-08-01T13:47:31.798Z,25.6
2017-08-01T13:48:36.975Z,25.6
2017-08-01T13:49:44.300Z,25.6
2017-08-01T13:50:51.521Z,25.6
2017-08-01T13:51:57.555Z,25.6
2017-08-01T13:53:06.880Z,25.5
2017-08-01T13:54:11.813Z,25.5
2017-08-01T13:55:20.677Z,25.5
2017-08-01T13:56:28.008Z,25.5
2017-08-01T13:57:36.236Z,25.5
2017-08-01T13:58:42.039Z,25.5
2017-08-01T13:59:51.830Z,25.5
2017-08-01T14:01:00.523Z,25.6
2017-08-01T14:02:08.603Z,25.6
2017-08-01T14:03:16.323Z,25.6
2017-08-01T14:04:23.826Z,25.6
2017-08-01T14:05:29.501Z,25.6
2017-08-01T14:06:36.301Z,25.6
2017-08-01T14:07:44.478Z,25.5
2017-08-01T14:10:04.337Z,25.5
2017-08-01T14:11:11.495Z,25.5
2017-08-01T14:12:21.914Z,25.4
2017-08-01T14:13:28.840Z,25.4
2017-08-01T14:14:37.212Z,25.4
2017-08-01T14:15:43.382Z,25.4
2017-08-01T14:16:51.350Z,25.4
2017-08-01T14:17:57.961Z,25.4
2017-08-01T14:19:06.626Z,25.4
2017-08-01T14:20:15.355Z,25.4
2017-08-01T14:21:21.977Z,25.4
2017-08-01T14:22:29.864Z,25.4
2017-08-01T14:23:36.475Z,25.4
2017-08-01T14:24:43.870Z,25.3
2017-08-01T14:25:49.605Z,25.4
2017-08-01T14:26:55.297Z,25.4
2017-08-01T14:28:05.369Z,25.4
2017-08-01T14:29:11.573Z,25.4
2017-08-01T14:30:19.873Z,25.4
2017-08-01T14:31:24.967Z,25.3
2017-08-01T14:32:33.246Z,25.4
2017-08-01T14:33:39.375Z,25.3
2017-08-01T14:34:46.377Z,25.3
2017-08-01T14:35:53.261Z,25.3
2017-08-01T14:37:01.384Z,25.3
2017-08-01T14:38:07.882Z,25.4
2017-08-01T14:39:12.708Z,25.3
2017-08-01T14:40:22.903Z,25.4
2017-08-01T14:41:27.392Z,25.4
2017-08-01T14:42:35.037Z,25.5